Time;durP1;ratioP1;P1;durP2;ratioP2;P2;SDS_P1;SDS_P2;PMS_P1;PMS_P2;Temp;Humidity;BMP_temperature;BMP_pressure;BME280_temperature;BME280_humidity;BME280_pressure;Samples;Min_cycle;Max_cycle;Signal;HPM_P1;HPM_P2
2021/12/25 00:04:57;;;;;;;2.75;1.70;;;18.20;61.00;;;;;;10379038;28;20128;-61
2021/12/25 00:10:00;;;;;;;2.58;1.85;;;18.30;61.00;;;;;;10375527;28;20046;-61
2021/12/25 00:15:01;;;;;;;3.40;2.17;;;18.30;60.90;;;;;;10375780;28;20108;-61
2021/12/25 00:20:03;;;;;;;3.15;1.63;;;18.30;60.70;;;;;;10375256;28;20069;-61
2021/12/25 00:25:06;;;;;;;3.15;1.95;;;18.30;60.70;;;;;;10375336;28;20052;-61
2021/12/25 00:30:15;;;;;;;3.53;2.30;;;18.30;60.60;;;;;;10375174;28;20041;-61
2021/12/25 00:35:16;;;;;;;2.95;1.70;;;18.20;60.50;;;;;;10374341;28;20547;-61
2021/12/25 00:40:18;;;;;;;2.40;1.67;;;18.30;60.50;;;;;;10374317;28;20042;-61
2021/12/25 00:45:19;;;;;;;2.65;1.83;;;18.30;60.50;;;;;;10374277;28;20042;-61
2021/12/25 00:50:19;;;;;;;2.58;1.65;;;18.30;60.40;;;;;;10374067;28;20133;-61
2021/12/25 00:55:20;;;;;;;2.15;1.38;;;18.30;60.50;;;;;;10372951;28;20034;-61
2021/12/25 01:00:21;;;;;;;3.35;1.80;;;18.20;60.30;;;;;;10380234;28;20042;-61
2021/12/25 01:05:22;;;;;;;2.35;1.52;;;18.30;60.40;;;;;;10373438;28;20087;-61
2021/12/25 01:10:23;;;;;;;2.70;1.75;;;18.30;60.30;;;;;;10373130;28;20479;-61
2021/12/25 01:15:37;;;;;;;2.13;1.45;;;18.30;60.20;;;;;;10373198;28;20076;-61
2021/12/25 01:51:39;;;;;;;1.95;1.20;;;18.30;59.80;;;;;;10372878;28;20479;-61
2021/12/25 01:56:40;;;;;;;2.03;1.05;;;18.30;59.80;;;;;;10371729;28;20026;-62
2021/12/25 02:01:41;;;;;;;2.40;1.42;;;18.30;59.80;;;;;;10378997;28;20038;-61
2021/12/25 02:06:41;;;;;;;2.15;1.48;;;18.30;59.60;;;;;;10371784;28;20506;-62
2021/12/25 02:11:42;;;;;;;1.67;1.13;;;18.40;59.60;;;;;;10370656;28;20120;-61
2021/12/25 02:16:57;;;;;;;1.63;1.00;;;18.40;59.60;;;;;;10371197;28;20038;-61
2021/12/25 02:22:01;;;;;;;2.30;1.40;;;18.40;59.50;;;;;;10375947;28;20376;-62
2021/12/25 02:27:05;;;;;;;1.33;1.08;;;18.40;59.40;;;;;;10379429;28;20053;-61
2021/12/25 02:32:07;;;;;;;2.22;1.33;;;18.40;59.30;;;;;;10379428;28;20033;-61
2021/12/25 02:37:08;;;;;;;2.10;1.23;;;18.40;59.20;;;;;;10379250;28;20527;-61
2021/12/25 02:42:09;;;;;;;2.08;1.30;;;18.40;59.10;;;;;;10378918;28;20177;-61
2021/12/25 02:47:15;;;;;;;2.28;1.40;;;18.40;59.00;;;;;;10378807;28;20479;-61
2021/12/25 02:52:18;;;;;;;2.05;1.30;;;18.40;59.00;;;;;;10378750;28;20030;-61
2021/12/25 02:57:18;;;;;;;1.95;1.27;;;18.40;58.90;;;;;;10378391;28;20045;-61
2021/12/25 03:02:19;;;;;;;2.78;1.48;;;18.40;58.90;;;;;;10384953;28;20037;-60
2021/12/25 03:07:20;;;;;;;1.73;1.15;;;18.50;58.80;;;;;;10377960;28;20165;-61
2021/12/25 03:12:31;;;;;;;1.95;1.33;;;18.50;58.70;;;;;;10378067;28;20041;-61
2021/12/25 03:17:33;;;;;;;2.22;1.10;;;18.40;58.70;;;;;;10376310;28;20029;-61
2021/12/25 03:22:34;;;;;;;1.88;1.27;;;18.40;58.80;;;;;;10377737;28;20034;-61
2021/12/25 03:27:40;;;;;;;1.65;1.17;;;18.40;58.80;;;;;;10377171;28;20488;-61
2021/12/25 03:32:42;;;;;;;1.88;1.20;;;18.40;58.80;;;;;;10376911;28;20038;-61
2021/12/25 03:37:42;;;;;;;2.40;1.45;;;18.50;58.50;;;;;;10377062;28;20049;-61
2021/12/25 03:42:43;;;;;;;1.92;1.35;;;18.50;58.30;;;;;;10376716;28;20033;-61
2021/12/25 03:47:46;;;;;;;2.08;1.48;;;18.50;58.50;;;;;;10376549;28;20483;-61
2021/12/25 03:58:12;;;;;;;1.90;1.40;;;18.40;58.50;;;;;;10376302;28;20081;-61
2021/12/25 04:04:01;;;;;;;2.40;1.20;;;18.50;58.50;;;;;;10383879;28;20026;-61
2021/12/25 04:08:44;;;;;;;2.28;1.50;;;18.50;58.50;;;;;;10370149;28;20074;-62
2021/12/25 04:13:45;;;;;;;1.88;1.13;;;18.50;58.30;;;;;;10376062;28;20392;-61
2021/12/25 04:18:46;;;;;;;1.98;1.27;;;18.40;58.30;;;;;;10374812;28;20036;-61
2021/12/25 04:23:47;;;;;;;1.85;1.10;;;18.50;58.30;;;;;;10375230;28;20038;-61
2021/12/25 04:29:01;;;;;;;1.80;0.98;;;18.50;58.20;;;;;;10374941;28;20049;-61
2021/12/25 05:05:53;;;;;;;1.40;0.90;;;18.40;58.00;;;;;;10372369;28;20096;-61
2021/12/25 05:10:54;;;;;;;1.33;0.77;;;18.40;58.00;;;;;;10372643;28;20037;-61
2021/12/25 05:15:55;;;;;;;1.45;1.00;;;18.50;57.70;;;;;;10372006;28;20026;-61
2021/12/25 05:20:56;;;;;;;1.20;0.80;;;18.50;57.70;;;;;;10372235;28;20041;-61
2021/12/25 05:25:56;;;;;;;3.10;1.13;;;18.40;57.70;;;;;;10371783;28;20029;-61
2021/12/25 05:30:57;;;;;;;1.42;0.80;;;18.40;57.80;;;;;;10372272;28;20411;-61
2021/12/25 05:35:58;;;;;;;1.00;0.60;;;18.40;57.70;;;;;;10370004;28;20045;-62
2021/12/25 05:40:59;;;;;;;1.20;0.63;;;18.40;57.80;;;;;;10371711;28;20022;-61
2021/12/25 05:45:59;;;;;;;1.27;0.55;;;18.40;57.70;;;;;;10371309;28;20127;-61
2021/12/25 05:51:01;;;;;;;0.70;0.50;;;18.40;57.70;;;;;;10368336;28;20092;-61
2021/12/25 05:56:02;;;;;;;1.15;0.70;;;18.50;57.50;;;;;;10363781;28;20472;-61
2021/12/25 06:01:04;;;;;;;2.50;0.70;;;18.60;57.20;;;;;;10370977;28;20140;-61
2021/12/25 06:06:06;;;;;;;1.10;0.50;;;18.60;57.10;;;;;;10371764;28;20076;-61
2021/12/25 06:11:07;;;;;;;0.70;0.50;;;18.50;57.30;;;;;;10371852;28;20069;-61
2021/12/25 06:16:08;;;;;;;1.23;0.55;;;18.50;57.30;;;;;;10371128;28;20057;-61
2021/12/25 06:21:08;;;;;;;1.98;0.75;;;18.50;57.40;;;;;;10371393;28;20505;-62
2021/12/25 06:26:09;;;;;;;21.48;20.17;;;18.50;57.30;;;;;;10370437;28;20033;-62
2021/12/25 06:31:10;;;;;;;24.45;22.58;;;18.50;58.00;;;;;;10371044;28;20125;-62
2021/12/25 06:36:10;;;;;;;26.50;25.13;;;18.60;57.80;;;;;;10370430;28;20034;-62
2021/12/25 06:41:12;;;;;;;15.48;14.18;;;18.80;58.10;;;;;;10370201;28;20039;-62
2021/12/25 06:46:13;;;;;;;18.98;17.23;;;18.90;59.10;;;;;;10369562;28;20030;-62
2021/12/25 06:51:14;;;;;;;20.70;19.50;;;18.90;59.70;;;;;;10369915;28;20034;-62
2021/12/25 06:56:15;;;;;;;20.10;18.60;;;18.70;60.30;;;;;;10370503;28;20037;-62
2021/12/25 07:01:15;;;;;;;17.30;15.70;;;18.60;61.00;;;;;;10377274;28;20401;-62
2021/12/25 07:06:16;;;;;;;14.95;13.63;;;18.50;61.20;;;;;;10372085;28;20030;-62
2021/12/25 07:11:18;;;;;;;16.20;14.73;;;18.50;61.40;;;;;;10378183;28;20109;-63
2021/12/25 07:16:19;;;;;;;13.60;12.30;;;18.50;61.30;;;;;;10377445;28;20030;-63
2021/12/25 07:21:20;;;;;;;15.05;13.80;;;18.50;61.20;;;;;;10377474;28;20038;-62
2021/12/25 07:26:21;;;;;;;14.35;12.90;;;18.40;61.20;;;;;;10357647;28;20038;-63
2021/12/25 07:31:22;;;;;;;13.65;12.32;;;18.30;61.60;;;;;;10376558;28;20034;-62
2021/12/25 07:36:23;;;;;;;16.58;13.10;;;18.30;61.70;;;;;;10372846;28;20492;-62
2021/12/25 07:41:25;;;;;;;12.13;10.88;;;18.30;61.90;;;;;;10374231;28;20509;-63
2021/12/25 07:46:26;;;;;;;12.32;11.18;;;18.30;61.90;;;;;;10370684;28;20058;-62
2021/12/25 07:51:27;;;;;;;13.32;11.02;;;18.30;61.60;;;;;;10374922;28;20026;-66
2021/12/25 07:56:28;;;;;;;20.33;11.32;;;18.30;61.80;;;;;;10374781;28;20391;-61
2021/12/25 08:01:31;;;;;;;12.38;10.32;;;18.30;63.20;;;;;;10375086;28;20057;-60
2021/12/25 08:06:32;;;;;;;11.30;10.23;;;18.20;62.10;;;;;;10357221;28;20088;-61
2021/12/25 08:11:34;;;;;;;22.98;10.05;;;18.20;61.50;;;;;;10374666;28;20034;-61
2021/12/25 08:16:34;;;;;;;17.35;11.23;;;18.30;61.50;;;;;;10373631;28;20053;-61
2021/12/25 08:21:35;;;;;;;13.70;9.38;;;18.20;61.50;;;;;;10372181;28;20486;-61
2021/12/25 08:26:36;;;;;;;19.23;8.30;;;18.10;61.70;;;;;;10372975;28;20405;-61
2021/12/25 08:31:37;;;;;;;15.93;8.75;;;18.10;61.50;;;;;;10373608;28;20482;-62
2021/12/25 08:36:38;;;;;;;14.65;8.25;;;18.10;61.70;;;;;;10373647;28;20096;-62
2021/12/25 08:41:39;;;;;;;8.70;7.85;;;18.10;61.60;;;;;;10373980;28;20476;-62
2021/12/25 08:46:45;;;;;;;14.57;8.45;;;18.10;61.70;;;;;;10371342;28;20235;-62
2021/12/25 08:51:46;;;;;;;13.40;8.18;;;18.00;61.70;;;;;;10370693;28;20030;-62
2021/12/25 08:56:47;;;;;;;13.90;7.75;;;18.00;61.20;;;;;;10372908;28;20029;-61
2021/12/25 09:01:49;;;;;;;15.98;6.85;;;18.00;61.10;;;;;;10380251;28;20058;-62
2021/12/25 09:06:50;;;;;;;16.33;7.18;;;17.90;61.00;;;;;;10371232;28;20034;-62
2021/12/25 09:11:50;;;;;;;15.75;7.10;;;17.90;60.70;;;;;;10370947;28;20034;-62
2021/12/25 09:16:52;;;;;;;56.78;29.85;;;18.00;60.80;;;;;;10369945;28;20053;-62
2021/12/25 09:21:53;;;;;;;44.05;23.15;;;18.00;60.50;;;;;;10369274;28;20076;-61
2021/12/25 09:26:53;;;;;;;36.17;19.40;;;18.00;60.30;;;;;;10371182;28;20044;-62
2021/12/25 09:31:54;;;;;;;27.70;16.67;;;18.00;60.70;;;;;;10370176;28;20468;-61
2021/12/25 09:36:55;;;;;;;29.63;14.70;;;18.00;60.90;;;;;;10371132;28;20038;-62
2021/12/25 09:41:56;;;;;;;27.38;14.15;;;18.10;60.80;;;;;;10370535;28;20472;-62
2021/12/25 09:46:57;;;;;;;28.35;13.68;;;18.20;61.20;;;;;;10371111;28;20029;-61
2021/12/25 09:51:58;;;;;;;24.60;12.82;;;18.40;61.70;;;;;;10370719;28;20064;-61
2021/12/25 09:56:59;;;;;;;23.40;15.85;;;18.40;63.40;;;;;;10369977;28;20033;-61
2021/12/25 10:02:01;;;;;;;27.90;17.30;;;18.40;63.50;;;;;;10371381;28;20026;-59
2021/12/25 10:07:12;;;;;;;27.05;14.93;;;18.40;63.60;;;;;;10367176;28;20381;-61
2021/12/25 10:12:13;;;;;;;19.30;14.95;;;18.40;62.20;;;;;;10371166;28;20081;-61
2021/12/25 10:17:24;;;;;;;16.08;13.63;;;18.50;62.10;;;;;;10369429;28;20476;-61
2021/12/25 10:22:25;;;;;;;21.98;16.33;;;18.40;63.10;;;;;;10368629;28;20377;-61
2021/12/25 10:27:26;;;;;;;20.25;18.25;;;18.50;63.80;;;;;;10368899;28;20030;-61
2021/12/25 10:32:27;;;;;;;23.42;21.17;;;18.50;64.50;;;;;;10366243;28;20042;-62
2021/12/25 10:37:27;;;;;;;21.15;18.98;;;18.60;63.70;;;;;;10370705;28;20100;-61
2021/12/25 10:42:34;;;;;;;20.90;16.80;;;18.70;63.20;;;;;;10372470;28;20079;-61
2021/12/25 10:47:34;;;;;;;20.00;16.35;;;18.70;62.70;;;;;;10376815;28;20033;-61
2021/12/25 10:52:42;;;;;;;30.15;15.25;;;18.50;62.90;;;;;;10378506;28;20041;-61
2021/12/25 10:57:52;;;;;;;17.92;13.85;;;18.40;62.80;;;;;;10377849;28;20451;-60
2021/12/25 11:03:05;;;;;;;20.13;12.75;;;18.30;62.70;;;;;;10384729;28;20037;-59
2021/12/25 11:08:29;;;;;;;31.02;11.82;;;18.30;63.90;;;;;;10376777;28;20053;-60
2021/12/25 11:13:48;;;;;;;16.38;10.95;;;18.30;64.50;;;;;;10377891;28;20555;-61
2021/12/25 11:19:09;;;;;;;17.03;10.17;;;18.40;65.00;;;;;;10375499;28;20121;-59
2021/12/25 11:24:20;;;;;;;11.13;8.50;;;18.30;63.50;;;;;;10375834;28;20032;-61
2021/12/25 11:29:24;;;;;;;11.35;8.07;;;18.30;64.10;;;;;;10373802;28;20124;-61
2021/12/25 11:34:27;;;;;;;11.30;8.18;;;18.20;63.60;;;;;;10376812;28;20037;-61
2021/12/25 11:39:29;;;;;;;10.80;7.72;;;18.20;63.40;;;;;;10371462;28;20511;-61
2021/12/25 11:44:45;;;;;;;9.75;6.95;;;18.10;63.20;;;;;;10369902;28;20399;-62
2021/12/25 11:49:54;;;;;;;7.93;6.30;;;18.10;62.90;;;;;;10371353;28;20563;-61
2021/12/25 11:55:20;;;;;;;;;;;18.00;62.80;;;;;;10375525;28;20038;-61
2021/12/25 12:00:42;;;;;;;12.35;6.78;;;17.90;62.50;;;;;;10384008;28;19917;-61
2021/12/25 12:05:48;;;;;;;8.25;5.63;;;17.80;63.00;;;;;;10376012;28;20038;-61
2021/12/25 12:10:55;;;;;;;8.52;6.20;;;17.70;62.60;;;;;;10375664;28;20125;-62
2021/12/25 12:16:04;;;;;;;8.60;5.72;;;17.70;62.10;;;;;;10374292;28;20041;-61
2021/12/25 12:21:35;;;;;;;7.80;5.95;;;17.70;62.00;;;;;;10375451;28;20033;-61
2021/12/25 12:26:44;;;;;;;11.30;5.40;;;17.70;62.30;;;;;;10376264;28;20072;-61
2021/12/25 12:31:47;;;;;;;;;;;17.50;62.30;;;;;;10375200;28;20455;-61
2021/12/25 12:36:47;;;;;;;5.68;4.50;;;17.50;62.40;;;;;;10373603;28;19981;-61
2021/12/25 12:41:54;;;;;;;7.13;5.15;;;17.40;61.90;;;;;;10374472;28;20045;-61
2021/12/25 12:46:59;;;;;;;6.30;4.97;;;17.50;61.60;;;;;;10374160;28;20034;-61
2021/12/25 12:52:09;;;;;;;5.22;4.53;;;17.60;61.20;;;;;;10373317;28;20030;-61
2021/12/25 12:57:40;;;;;;;7.30;4.57;;;17.70;60.70;;;;;;10373864;28;20034;-62
2021/12/25 13:02:48;;;;;;;6.38;3.90;;;17.70;60.40;;;;;;10383770;28;20099;-61
2021/12/25 13:07:52;;;;;;;6.38;3.97;;;17.70;60.00;;;;;;10372310;28;20497;-61
2021/12/25 13:13:12;;;;;;;6.45;3.72;;;17.80;59.60;;;;;;10373433;28;20526;-61
2021/12/25 13:18:13;;;;;;;4.10;3.60;;;17.80;59.30;;;;;;10373406;28;20057;-61
2021/12/25 13:23:24;;;;;;;3.92;3.22;;;17.80;59.00;;;;;;10373490;28;20041;-62
2021/12/25 13:28:30;;;;;;;4.60;3.25;;;17.80;59.00;;;;;;10372778;28;20037;-61
2021/12/25 13:33:35;;;;;;;4.78;3.45;;;17.80;58.80;;;;;;10373419;28;20065;-61
2021/12/25 13:39:02;;;;;;;4.07;3.15;;;17.80;58.50;;;;;;10372360;28;20060;-61
2021/12/25 13:44:07;;;;;;;3.42;2.63;;;17.90;58.30;;;;;;10372355;28;20038;-61
2021/12/25 13:49:38;;;;;;;3.08;2.50;;;17.90;58.20;;;;;;10371009;28;20554;-61
2021/12/25 13:54:43;;;;;;;4.57;2.60;;;17.90;58.10;;;;;;10372248;28;20113;-62
2021/12/25 13:59:50;;;;;;;5.15;2.72;;;17.90;58.10;;;;;;10374691;28;20067;-61
2021/12/25 14:04:52;;;;;;;5.95;2.72;;;17.90;57.90;;;;;;10378186;28;20399;-62
2021/12/25 14:10:03;;;;;;;3.38;2.53;;;17.90;57.80;;;;;;10371850;28;20086;-61
2021/12/25 14:15:07;;;;;;;2.92;2.17;;;17.90;57.60;;;;;;10370731;28;20084;-61
2021/12/25 14:20:27;;;;;;;2.78;2.00;;;17.90;57.50;;;;;;10371489;28;20129;-61
2021/12/25 14:25:33;;;;;;;3.00;2.58;;;17.90;57.40;;;;;;10371320;28;20042;-61
2021/12/25 14:30:45;;;;;;;2.40;2.20;;;17.80;57.20;;;;;;10371406;28;20036;-61
2021/12/25 14:35:47;;;;;;;3.40;2.25;;;17.90;57.00;;;;;;10371020;28;20037;-61
2021/12/25 14:40:50;;;;;;;3.00;2.25;;;18.00;56.60;;;;;;10369990;28;20520;-61
2021/12/25 14:45:53;;;;;;;1.98;1.77;;;18.00;56.40;;;;;;10370590;28;20388;-61
2021/12/25 14:51:05;;;;;;;2.88;1.92;;;18.00;56.20;;;;;;10371301;28;20076;-61
2021/12/25 14:56:13;;;;;;;2.80;1.70;;;18.10;56.00;;;;;;10370160;28;20038;-62
2021/12/25 15:01:20;;;;;;;3.67;2.17;;;18.10;55.90;;;;;;10380072;28;20037;-61
2021/12/25 15:06:23;;;;;;;2.50;1.67;;;18.10;56.00;;;;;;10370678;28;20057;-61
2021/12/25 15:11:23;;;;;;;2.63;1.52;;;18.00;55.90;;;;;;10370606;28;20030;-61
2021/12/25 15:16:49;;;;;;;1.67;1.42;;;18.00;55.90;;;;;;10370469;28;20030;-61
2021/12/25 15:21:50;;;;;;;2.53;1.52;;;18.10;55.60;;;;;;10369187;28;20403;-61
2021/12/25 15:26:57;;;;;;;2.33;1.50;;;18.10;55.30;;;;;;10371598;28;20113;-61
2021/12/25 15:32:02;;;;;;;2.65;1.60;;;18.10;55.40;;;;;;10376261;28;20038;-61
2021/12/25 15:37:26;;;;;;;2.00;1.52;;;18.10;55.10;;;;;;10376991;28;20045;-61
2021/12/25 15:42:27;;;;;;;3.72;1.85;;;18.00;55.10;;;;;;10376779;28;20038;-61
2021/12/25 15:47:28;;;;;;;2.05;1.30;;;18.10;55.10;;;;;;10375653;28;20383;-61
2021/12/25 15:52:29;;;;;;;2.63;1.70;;;18.10;54.90;;;;;;10376796;28;20037;-62
2021/12/25 15:57:30;;;;;;;2.40;1.42;;;18.10;54.80;;;;;;10376319;28;20036;-61
2021/12/25 16:02:31;;;;;;;1.85;1.38;;;18.10;54.60;;;;;;10387654;28;20045;-61
2021/12/25 16:07:32;;;;;;;2.03;1.25;;;18.10;54.50;;;;;;10376034;28;20156;-61
2021/12/25 16:12:33;;;;;;;2.53;1.75;;;18.10;54.40;;;;;;10375990;28;20025;-62
2021/12/25 16:17:33;;;;;;;2.47;1.33;;;18.10;54.20;;;;;;10375848;28;20037;-61
2021/12/25 16:22:34;;;;;;;1.42;1.10;;;18.10;54.10;;;;;;10375352;28;20030;-60
2021/12/25 16:27:35;;;;;;;1.83;1.00;;;18.10;54.00;;;;;;10374611;28;20106;-61
2021/12/25 16:32:37;;;;;;;1.98;1.27;;;18.10;53.80;;;;;;10375129;28;20445;-61
2021/12/25 16:37:38;;;;;;;2.13;1.27;;;18.10;53.40;;;;;;10372954;28;20077;-62
2021/12/25 16:42:39;;;;;;;1.65;1.05;;;18.20;53.30;;;;;;10374435;28;20120;-61
2021/12/25 16:47:40;;;;;;;1.77;1.30;;;18.20;52.90;;;;;;10373263;28;20649;-61
2021/12/25 16:52:40;;;;;;;2.40;1.58;;;18.30;52.40;;;;;;10374509;28;20026;-61
2021/12/25 16:57:41;;;;;;;2.30;1.33;;;18.20;53.00;;;;;;10374082;28;20042;-61
2021/12/25 17:02:42;;;;;;;1.58;1.15;;;18.30;52.10;;;;;;10384790;28;20056;-61
2021/12/25 17:07:43;;;;;;;2.67;1.67;;;18.20;51.90;;;;;;10373975;28;20029;-61
2021/12/25 17:12:44;;;;;;;1.10;1.00;;;18.20;51.60;;;;;;10374156;28;20347;-61
2021/12/25 17:17:46;;;;;;;1.55;1.10;;;18.20;51.90;;;;;;10373899;28;20049;-61
2021/12/25 17:22:47;;;;;;;1.20;0.90;;;18.10;51.70;;;;;;10373115;28;20033;-62
2021/12/25 17:27:50;;;;;;;1.65;1.00;;;18.10;51.90;;;;;;10372897;28;20041;-61
2021/12/25 17:32:51;;;;;;;2.30;1.30;;;18.10;51.70;;;;;;10373180;28;20033;-61
2021/12/25 17:37:52;;;;;;;1.95;1.05;;;18.20;51.40;;;;;;10372508;28;20053;-61
2021/12/25 17:42:53;;;;;;;1.77;0.85;;;18.30;51.30;;;;;;10372596;28;20053;-61
2021/12/25 17:47:55;;;;;;;1.70;0.90;;;18.30;51.10;;;;;;10372494;28;20236;-61
2021/12/25 17:52:57;;;;;;;2.13;1.25;;;18.30;51.10;;;;;;10371919;28;20060;-61
2021/12/25 17:57:58;;;;;;;1.83;1.00;;;18.20;51.00;;;;;;10371957;28;20504;-60
2021/12/25 18:03:00;;;;;;;2.03;1.27;;;18.30;51.20;;;;;;10382344;28;20026;-61
2021/12/25 18:08:02;;;;;;;2.00;1.20;;;18.30;50.70;;;;;;10370523;28;20034;-61
2021/12/25 18:13:04;;;;;;;2.75;1.38;;;18.20;50.20;;;;;;10371597;28;20361;-61
2021/12/25 18:18:08;;;;;;;2.50;1.13;;;18.30;50.20;;;;;;10371520;28;20061;-61
2021/12/25 18:23:11;;;;;;;1.38;1.00;;;18.30;50.10;;;;;;10371420;28;20030;-61
2021/12/25 18:28:13;;;;;;;2.05;1.05;;;18.30;50.40;;;;;;10371451;28;20041;-61
2021/12/25 18:33:14;;;;;;;2.10;1.27;;;18.30;50.10;;;;;;10371102;28;20038;-62
2021/12/25 18:38:16;;;;;;;1.58;1.00;;;18.30;50.30;;;;;;10371009;28;20395;-61
2021/12/25 18:43:20;;;;;;;2.08;1.05;;;18.30;50.40;;;;;;10370893;28;20041;-61
2021/12/25 18:48:21;;;;;;;1.65;1.20;;;18.30;50.20;;;;;;10371010;28;20038;-61
2021/12/25 18:53:22;;;;;;;2.92;1.50;;;18.30;50.50;;;;;;10370904;28;20034;-61
2021/12/25 18:58:23;;;;;;;1.38;1.00;;;18.30;50.50;;;;;;10370663;28;20065;-61
2021/12/25 19:03:24;;;;;;;1.95;1.10;;;18.30;50.40;;;;;;10385082;28;20084;-61
2021/12/25 19:08:27;;;;;;;1.33;0.80;;;18.30;50.50;;;;;;10378178;28;20026;-61
2021/12/25 19:13:29;;;;;;;2.60;1.30;;;18.30;50.40;;;;;;10377194;28;20431;-61
2021/12/25 19:18:32;;;;;;;2.97;1.17;;;18.30;50.70;;;;;;10378699;28;20033;-61
2021/12/25 19:23:33;;;;;;;2.95;1.02;;;18.20;50.70;;;;;;10375232;28;20034;-60
2021/12/25 19:28:34;;;;;;;3.22;0.88;;;18.20;51.60;;;;;;10376303;28;20113;-61
2021/12/25 19:33:35;;;;;;;3.47;1.15;;;18.20;51.70;;;;;;10376836;28;20087;-62
2021/12/25 19:38:36;;;;;;;8.10;1.38;;;18.20;52.00;;;;;;10375419;28;20046;-61
2021/12/25 19:43:37;;;;;;;3.35;1.27;;;18.10;52.90;;;;;;10374716;28;20050;-61
2021/12/25 19:48:38;;;;;;;2.53;1.25;;;18.10;53.70;;;;;;10374997;28;20037;-61
2021/12/25 19:53:41;;;;;;;3.35;1.10;;;18.10;54.70;;;;;;10374960;28;20053;-61
2021/12/25 19:58:42;;;;;;;4.20;0.98;;;18.20;53.30;;;;;;10374347;28;20033;-60
2021/12/25 20:03:43;;;;;;;3.45;1.00;;;18.30;53.20;;;;;;10374630;28;20029;-61
2021/12/25 20:08:51;;;;;;;2.75;1.38;;;18.30;53.30;;;;;;10374342;28;20026;-61
2021/12/25 20:13:53;;;;;;;2.67;1.87;;;18.20;53.60;;;;;;10372414;28;20032;-61
2021/12/25 20:18:55;;;;;;;3.67;1.23;;;18.20;53.80;;;;;;10372485;28;20120;-61
2021/12/25 20:23:58;;;;;;;2.50;0.95;;;18.30;53.80;;;;;;10373284;28;20050;-60
2021/12/25 20:28:58;;;;;;;4.95;1.23;;;18.30;53.90;;;;;;10374417;28;20108;-61
2021/12/25 20:33:59;;;;;;;3.85;0.73;;;18.20;54.20;;;;;;10374398;28;20033;-61
2021/12/25 20:39:00;;;;;;;2.85;0.93;;;18.30;54.30;;;;;;10373976;28;20037;-61
2021/12/25 20:44:15;;;;;;;2.13;0.60;;;18.20;54.40;;;;;;10374762;28;20113;-61
2021/12/25 20:49:17;;;;;;;1.48;0.80;;;18.20;54.40;;;;;;10375334;28;20030;-61
2021/12/25 20:54:20;;;;;;;1.27;0.70;;;18.20;54.40;;;;;;10373818;28;20077;-59
2021/12/25 20:59:21;;;;;;;1.77;1.13;;;18.20;54.40;;;;;;10374022;28;20030;-61
2021/12/25 21:04:24;;;;;;;1.95;0.85;;;18.20;54.40;;;;;;10382446;28;20038;-62
2021/12/25 21:09:24;;;;;;;1.77;0.85;;;18.30;54.30;;;;;;10373504;28;20029;-62
2021/12/25 21:14:27;;;;;;;1.98;1.05;;;18.40;54.10;;;;;;10373671;28;20116;-63
2021/12/25 21:19:28;;;;;;;1.45;0.75;;;18.40;53.90;;;;;;10373422;28;20129;-62
2021/12/25 21:24:28;;;;;;;2.05;0.85;;;18.40;53.90;;;;;;10372552;28;20391;-59
2021/12/25 21:29:29;;;;;;;4.80;0.82;;;18.40;54.00;;;;;;10372689;28;20037;-60
2021/12/25 21:34:30;;;;;;;3.63;0.85;;;18.40;54.10;;;;;;10372769;28;20025;-61
2021/12/25 21:39:31;;;;;;;2.25;0.60;;;18.40;54.20;;;;;;10372813;28;20052;-60
2021/12/25 21:44:32;;;;;;;2.05;0.70;;;18.30;54.20;;;;;;10372164;28;20411;-60
2021/12/25 21:49:33;;;;;;;1.42;0.85;;;18.30;54.30;;;;;;10372269;28;20030;-62
2021/12/25 21:54:33;;;;;;;1.52;0.70;;;18.30;54.40;;;;;;10372017;28;20040;-62
2021/12/25 21:59:35;;;;;;;1.42;0.90;;;18.30;54.40;;;;;;10373582;28;20029;-60
2021/12/25 22:04:44;;;;;;;1.98;0.80;;;18.30;54.20;;;;;;10380443;28;20065;-61
2021/12/25 22:09:50;;;;;;;;;;;18.40;54.20;;;;;;10372168;28;20270;-61
2021/12/25 22:14:53;;;;;;;2.67;0.90;;;18.40;54.30;;;;;;10371303;28;20360;-61
2021/12/25 22:19:56;;;;;;;2.40;0.70;;;18.40;54.30;;;;;;10370811;28;20034;-61
2021/12/25 22:24:57;;;;;;;1.25;0.70;;;18.30;54.40;;;;;;10370924;28;20466;-61
2021/12/25 22:29:58;;;;;;;1.13;0.63;;;18.30;54.50;;;;;;10370730;28;20041;-61
2021/12/25 22:34:59;;;;;;;1.70;0.70;;;18.30;54.40;;;;;;10371059;28;20033;-60
2021/12/25 22:40:00;;;;;;;1.88;0.95;;;18.30;54.50;;;;;;10377305;28;20046;-60
2021/12/25 22:45:01;;;;;;;1.60;0.65;;;18.30;54.50;;;;;;10378635;28;20042;-61
2021/12/25 22:50:04;;;;;;;1.20;0.65;;;18.30;54.60;;;;;;10378503;28;20046;-61
2021/12/25 22:55:11;;;;;;;2.03;0.82;;;18.30;54.50;;;;;;10378414;28;20026;-61
2021/12/25 23:00:23;;;;;;;1.65;0.90;;;18.30;54.50;;;;;;10384027;28;20037;-60
2021/12/25 23:05:32;;;;;;;2.38;0.50;;;18.30;54.60;;;;;;10379478;28;20060;-60
2021/12/25 23:10:36;;;;;;;1.70;0.80;;;18.30;54.50;;;;;;10377806;28;20380;-61
2021/12/25 23:15:39;;;;;;;0.57;0.43;;;18.20;54.60;;;;;;10377631;28;20034;-60
2021/12/25 23:20:42;;;;;;;2.13;0.60;;;18.30;54.60;;;;;;10377648;28;20030;-60
2021/12/25 23:25:43;;;;;;;0.65;0.47;;;18.30;54.60;;;;;;10375941;28;20034;-59
2021/12/25 23:30:46;;;;;;;1.38;0.50;;;18.30;54.70;;;;;;10375629;28;20400;-60
2021/12/25 23:35:47;;;;;;;1.02;0.70;;;18.30;54.60;;;;;;10376759;28;20754;-60
2021/12/25 23:40:48;;;;;;;1.50;0.70;;;18.30;54.60;;;;;;10373990;28;20050;-60
2021/12/25 23:45:49;;;;;;;0.90;0.70;;;18.20;54.70;;;;;;10374000;28;20030;-60
2021/12/25 23:50:52;;;;;;;0.93;0.60;;;18.30;54.60;;;;;;10373491;28;20426;-60
2021/12/25 23:55:54;;;;;;;2.60;0.95;;;18.30;54.50;;;;;;10372507;28;20038;-61
